createdAt,value
2022-09-11T00:01:28.397Z,15.20
2022-09-11T00:03:57.081Z,15.30
2022-09-11T00:06:30.031Z,15.20
2022-09-11T00:09:01.857Z,15.20
2022-09-11T00:11:32.980Z,15.20
2022-09-11T00:14:01.773Z,15.20
2022-09-11T00:16:33.911Z,15.20
2022-09-11T00:19:03.585Z,15.10
2022-09-11T00:21:31.882Z,15.10
2022-09-11T00:24:01.586Z,15.10
2022-09-11T00:26:29.758Z,15.10
2022-09-11T00:28:57.886Z,15.00
2022-09-11T00:31:28.223Z,15.00
2022-09-11T00:33:57.382Z,15.00
2022-09-11T00:36:27.485Z,15.00
2022-09-11T00:38:56.084Z,15.00
2022-09-11T00:41:27.335Z,14.90
2022-09-11T00:43:59.538Z,14.90
2022-09-11T00:46:35.041Z,14.90
2022-09-11T00:49:07.723Z,14.80
2022-09-11T00:51:37.946Z,14.70
2022-09-11T00:54:06.475Z,14.70
2022-09-11T00:56:38.695Z,14.70
2022-09-11T00:59:07.875Z,14.70
2022-09-11T01:01:37.170Z,14.60
2022-09-11T01:04:07.505Z,14.60
2022-09-11T01:06:36.014Z,14.60
2022-09-11T01:09:04.168Z,14.60
2022-09-11T01:11:46.254Z,14.60
2022-09-11T01:14:34.152Z,14.60
2022-09-11T01:17:15.298Z,14.50
2022-09-11T01:20:05.506Z,14.50
2022-09-11T01:23:03.514Z,14.50
2022-09-11T01:25:47.681Z,14.50
2022-09-11T01:28:19.818Z,14.50
2022-09-11T01:30:55.930Z,14.50
2022-09-11T01:33:30.967Z,14.50
2022-09-11T01:36:06.434Z,14.40
2022-09-11T01:38:39.001Z,14.40
2022-09-11T01:41:11.450Z,14.40
2022-09-11T01:43:44.134Z,14.40
2022-09-11T01:46:23.218Z,14.30
2022-09-11T01:48:56.867Z,14.30
2022-09-11T01:51:30.662Z,14.20
2022-09-11T01:54:00.379Z,14.20
2022-09-11T01:56:33.985Z,14.20
2022-09-11T01:59:08.510Z,14.20
2022-09-11T02:01:39.489Z,14.20
2022-09-11T02:04:11.742Z,14.20
2022-09-11T02:06:44.994Z,14.20
2022-09-11T02:09:17.758Z,14.10
2022-09-11T02:11:49.555Z,14.10
2022-09-11T02:14:28.081Z,14.10
2022-09-11T02:17:03.984Z,14.10
2022-09-11T02:19:32.789Z,14.10
2022-09-11T02:22:01.089Z,14.10
2022-09-11T02:24:29.513Z,14.10
2022-09-11T02:27:02.815Z,14.10
2022-09-11T02:29:32.709Z,14.10
2022-09-11T02:32:01.521Z,14.10
2022-09-11T02:34:32.674Z,14.10
2022-09-11T02:37:14.702Z,14.00
2022-09-11T02:40:03.055Z,14.00
2022-09-11T02:42:43.056Z,14.00
2022-09-11T02:45:24.577Z,14.00
2022-09-11T02:48:05.175Z,14.00
2022-09-11T02:50:41.969Z,13.90
2022-09-11T02:53:15.370Z,13.90
2022-09-11T02:55:55.787Z,13.90
2022-09-11T02:58:28.080Z,13.80
2022-09-11T03:00:59.745Z,13.80
2022-09-11T03:03:28.309Z,13.80
2022-09-11T03:05:56.813Z,13.80
2022-09-11T03:08:24.897Z,13.80
2022-09-11T03:10:54.648Z,13.80
2022-09-11T03:13:22.720Z,13.70
2022-09-11T03:15:50.738Z,13.70
2022-09-11T03:18:20.208Z,13.70
2022-09-11T03:20:49.080Z,13.70
2022-09-11T03:23:17.585Z,13.60
2022-09-11T03:25:45.635Z,13.70
2022-09-11T03:28:13.784Z,13.60
2022-09-11T03:30:42.491Z,13.60
2022-09-11T03:33:11.392Z,13.60
2022-09-11T03:35:40.893Z,13.60
2022-09-11T03:38:09.011Z,13.60
2022-09-11T03:40:37.240Z,13.60
2022-09-11T03:43:05.380Z,13.50
2022-09-11T03:45:33.525Z,13.50
2022-09-11T03:48:02.234Z,13.50
2022-09-11T03:50:30.263Z,13.50
2022-09-11T03:52:59.959Z,13.40
2022-09-11T03:55:28.647Z,13.50
2022-09-11T03:57:56.748Z,13.40
2022-09-11T04:00:24.854Z,13.40
2022-09-11T04:02:52.936Z,13.40
2022-09-11T04:05:22.690Z,13.30
2022-09-11T04:07:52.061Z,13.30
2022-09-11T04:10:21.808Z,13.20
2022-09-11T04:12:50.060Z,13.20
2022-09-11T04:15:18.219Z,13.20
2022-09-11T04:17:46.312Z,13.20
2022-09-11T04:20:14.387Z,13.20
2022-09-11T04:22:42.905Z,13.20
2022-09-11T04:25:11.165Z,13.20
2022-09-11T04:27:40.755Z,13.20
2022-09-11T04:30:10.018Z,13.10
2022-09-11T04:32:38.056Z,13.10
2022-09-11T04:35:06.828Z,13.10
2022-09-11T04:37:35.499Z,13.00
2022-09-11T04:40:04.134Z,13.00
2022-09-11T04:42:32.181Z,13.00
2022-09-11T04:45:01.592Z,13.00
2022-09-11T04:47:30.129Z,13.00
2022-09-11T04:49:58.436Z,13.00
2022-09-11T04:52:27.851Z,13.00
2022-09-11T04:54:55.984Z,13.00
2022-09-11T04:57:24.079Z,12.90
2022-09-11T04:59:52.767Z,12.90
2022-09-11T05:02:22.861Z,12.90
2022-09-11T05:04:51.009Z,12.90
2022-09-11T05:07:19.302Z,12.90
2022-09-11T05:09:47.945Z,12.90
2022-09-11T05:12:16.142Z,12.90
2022-09-11T05:14:44.320Z,13.00
2022-09-11T05:17:13.361Z,13.00
2022-09-11T05:19:43.257Z,13.00
2022-09-11T05:22:11.285Z,13.00
2022-09-11T05:24:40.351Z,13.00
2022-09-11T05:27:09.679Z,13.00
2022-09-11T05:29:38.566Z,12.90
2022-09-11T05:32:06.609Z,12.90
2022-09-11T05:34:34.658Z,12.90
2022-09-11T05:37:04.180Z,12.90
2022-09-11T05:39:32.357Z,12.90
2022-09-11T05:42:00.520Z,12.90
2022-09-11T05:44:31.002Z,12.90
2022-09-11T05:46:59.436Z,12.90
2022-09-11T05:49:29.139Z,13.00
2022-09-11T05:51:57.229Z,13.00
2022-09-11T05:54:26.905Z,13.00
2022-09-11T05:56:55.766Z,13.00
2022-09-11T05:59:23.764Z,13.10
2022-09-11T06:01:51.913Z,13.10
2022-09-11T06:04:20.231Z,13.10
2022-09-11T06:06:48.736Z,13.10
2022-09-11T06:09:16.878Z,13.20
2022-09-11T06:11:46.450Z,13.20
2022-09-11T06:14:14.337Z,13.20
2022-09-11T06:16:42.653Z,13.30
2022-09-11T06:19:10.802Z,13.30
2022-09-11T06:21:38.900Z,13.30
2022-09-11T06:24:07.394Z,13.30
2022-09-11T06:26:36.496Z,13.40
2022-09-11T06:29:05.958Z,13.40
2022-09-11T06:31:34.095Z,13.40
2022-09-11T06:34:02.204Z,13.50
2022-09-11T06:36:31.594Z,13.50
2022-09-11T06:39:00.298Z,13.50
2022-09-11T06:41:29.181Z,13.50
2022-09-11T06:43:57.451Z,13.60
2022-09-11T06:46:27.474Z,13.60
2022-09-11T06:48:57.604Z,13.60
2022-09-11T06:51:25.646Z,13.70
2022-09-11T06:53:56.292Z,13.70
2022-09-11T06:56:24.576Z,13.80
2022-09-11T06:58:52.937Z,13.80
2022-09-11T07:01:22.544Z,13.90
2022-09-11T07:03:54.508Z,13.90
2022-09-11T07:06:24.437Z,14.00
2022-09-11T07:08:53.883Z,14.00
2022-09-11T07:11:22.142Z,14.00
2022-09-11T07:13:50.320Z,14.10
2022-09-11T07:16:18.559Z,14.10
2022-09-11T07:18:48.299Z,14.20
2022-09-11T07:21:20.949Z,14.20
2022-09-11T07:23:51.888Z,14.30
2022-09-11T07:26:20.161Z,14.30
2022-09-11T07:28:51.525Z,14.30
2022-09-11T07:31:21.499Z,14.40
2022-09-11T07:33:51.475Z,14.40
2022-09-11T07:36:23.227Z,14.20
2022-09-11T07:38:52.210Z,14.50
2022-09-11T07:41:22.649Z,14.50
2022-09-11T07:43:55.066Z,14.60
2022-09-11T07:46:24.395Z,14.60
2022-09-11T07:48:52.517Z,14.60
2022-09-11T07:51:21.985Z,14.70
2022-09-11T07:53:54.319Z,14.80
2022-09-11T07:56:24.895Z,14.80
2022-09-11T07:58:54.922Z,14.90
2022-09-11T08:01:25.173Z,14.90
2022-09-11T08:03:56.972Z,15.00
2022-09-11T08:06:28.231Z,15.10
2022-09-11T08:08:58.892Z,15.10
2022-09-11T08:11:31.762Z,15.20
2022-09-11T08:14:00.365Z,15.30
2022-09-11T08:16:29.847Z,15.30
2022-09-11T08:18:58.307Z,15.40
2022-09-11T08:21:27.719Z,15.40
2022-09-11T08:23:55.807Z,15.50
2022-09-11T08:26:25.891Z,15.60
2022-09-11T08:28:55.398Z,15.70
2022-09-11T08:31:26.342Z,15.80
2022-09-11T08:33:54.733Z,15.80
2022-09-11T08:36:25.888Z,15.90
2022-09-11T08:38:55.364Z,15.90
2022-09-11T08:41:41.148Z,16.00
2022-09-11T08:44:17.190Z,16.00
2022-09-11T08:46:49.057Z,16.00
2022-09-11T08:49:24.361Z,16.10
2022-09-11T08:51:54.024Z,16.10
2022-09-11T08:54:29.319Z,16.20
2022-09-11T08:57:11.765Z,16.30
2022-09-11T08:59:56.868Z,16.30
2022-09-11T09:02:54.986Z,16.40
2022-09-11T09:05:32.312Z,16.50
2022-09-11T09:08:10.250Z,16.50
2022-09-11T09:10:51.585Z,16.60
2022-09-11T09:13:42.789Z,16.70
2022-09-11T09:16:26.205Z,16.80
2022-09-11T09:19:01.476Z,16.90
2022-09-11T09:21:36.549Z,17.00
2022-09-11T09:24:09.219Z,17.10
2022-09-11T09:26:41.772Z,17.20
2022-09-11T09:29:18.518Z,17.30
2022-09-11T09:31:48.836Z,17.40
2022-09-11T09:34:20.442Z,17.40
2022-09-11T09:36:56.942Z,17.40
2022-09-11T09:39:25.530Z,17.40
2022-09-11T09:42:28.305Z,17.40
2022-09-11T09:45:14.616Z,17.40
2022-09-11T09:47:45.896Z,17.40
2022-09-11T09:50:20.255Z,17.40
2022-09-11T09:52:49.856Z,17.40
2022-09-11T09:55:19.649Z,17.40
2022-09-11T09:57:49.354Z,17.50
2022-09-11T10:00:19.859Z,17.50
2022-09-11T10:02:50.906Z,17.50
2022-09-11T10:05:23.919Z,17.50
2022-09-11T10:07:53.624Z,17.50
2022-09-11T10:10:28.281Z,17.60
2022-09-11T10:13:18.157Z,17.50
2022-09-11T10:15:50.308Z,17.50
2022-09-11T10:18:35.959Z,17.60
2022-09-11T10:21:17.155Z,17.60
2022-09-11T10:23:47.910Z,17.60
2022-09-11T10:26:19.340Z,17.60
2022-09-11T10:28:49.476Z,17.70
2022-09-11T10:31:18.559Z,17.80
2022-09-11T10:33:51.441Z,17.80
2022-09-11T10:36:24.541Z,17.90
2022-09-11T10:38:53.012Z,17.90
2022-09-11T10:41:23.436Z,17.90
2022-09-11T10:43:58.764Z,17.90
2022-09-11T10:46:29.997Z,17.90
2022-09-11T10:49:00.203Z,18.00
2022-09-11T10:51:30.103Z,18.00
2022-09-11T10:54:22.813Z,18.10
2022-09-11T10:57:04.714Z,18.20
2022-09-11T10:59:46.023Z,18.20
2022-09-11T11:02:21.455Z,18.20
2022-09-11T11:04:49.958Z,18.20
2022-09-11T11:07:37.860Z,18.30
2022-09-11T11:10:18.116Z,18.30
2022-09-11T11:13:01.831Z,18.40
2022-09-11T11:15:43.322Z,18.50
2022-09-11T11:18:31.300Z,18.50
2022-09-11T11:21:12.868Z,18.70
2022-09-11T11:23:52.934Z,18.80
2022-09-11T11:26:43.082Z,18.90
2022-09-11T11:29:28.875Z,19.10
2022-09-11T11:32:17.306Z,19.20
2022-09-11T11:35:01.514Z,19.30
2022-09-11T11:37:34.926Z,19.20
2022-09-11T11:40:10.909Z,19.20
2022-09-11T11:42:44.842Z,19.10
2022-09-11T11:45:23.467Z,19.10
2022-09-11T11:47:55.037Z,19.10
2022-09-11T11:50:31.824Z,19.20
2022-09-11T11:53:06.252Z,19.30
2022-09-11T11:55:44.242Z,19.40
2022-09-11T11:58:20.121Z,19.60
2022-09-11T12:00:55.379Z,19.70
2022-09-11T12:03:33.708Z,19.80
2022-09-11T12:06:03.179Z,19.90
2022-09-11T12:08:31.300Z,20.10
2022-09-11T12:11:02.919Z,20.10
2022-09-11T12:13:35.024Z,20.30
2022-09-11T12:16:11.586Z,20.40
2022-09-11T12:18:43.473Z,20.40
2022-09-11T12:21:35.108Z,20.30
2022-09-11T12:24:20.922Z,20.30
2022-09-11T12:27:11.831Z,20.60
2022-09-11T12:29:54.509Z,20.60
2022-09-11T12:32:44.960Z,20.60
2022-09-11T12:35:20.957Z,20.70
2022-09-11T12:37:55.743Z,20.80
2022-09-11T12:40:32.254Z,21.00
2022-09-11T12:43:17.991Z,21.10
2022-09-11T12:45:48.213Z,21.20
2022-09-11T12:48:18.784Z,21.40
2022-09-11T12:50:54.230Z,21.70
2022-09-11T12:53:26.224Z,21.90
2022-09-11T12:56:01.020Z,22.00
2022-09-11T12:58:37.161Z,22.10
2022-09-11T13:01:14.467Z,22.20
2022-09-11T13:03:53.722Z,22.20
2022-09-11T13:06:25.223Z,22.30
2022-09-11T13:08:56.626Z,22.40
2022-09-11T13:11:43.456Z,22.80
2022-09-11T13:14:49.277Z,23.20
2022-09-11T13:17:30.462Z,23.60
2022-09-11T13:20:22.497Z,23.60
2022-09-11T13:22:57.593Z,23.80
2022-09-11T13:25:27.977Z,23.60
2022-09-11T13:27:57.828Z,23.70
2022-09-11T13:30:26.968Z,23.90
2022-09-11T13:33:09.643Z,24.00
2022-09-11T13:35:40.343Z,24.50
2022-09-11T13:38:14.784Z,24.80
2022-09-11T13:40:48.769Z,25.20
2022-09-11T13:43:20.780Z,25.50
2022-09-11T13:45:49.227Z,25.50
2022-09-11T13:48:22.892Z,25.40
2022-09-11T13:50:51.683Z,25.20
2022-09-11T13:53:21.984Z,24.90
2022-09-11T13:55:50.678Z,24.70
2022-09-11T13:58:24.020Z,24.70
2022-09-11T14:00:52.624Z,24.80
2022-09-11T14:03:22.387Z,25.10
2022-09-11T14:05:51.701Z,25.40
2022-09-11T14:08:24.765Z,25.70
2022-09-11T14:10:54.327Z,26.10
2022-09-11T14:13:24.161Z,26.20
2022-09-11T14:15:54.463Z,26.50
2022-09-11T14:18:27.079Z,26.30
2022-09-11T14:20:55.707Z,27.00
2022-09-11T14:23:27.338Z,27.40
2022-09-11T14:26:12.589Z,28.10
2022-09-11T14:28:44.795Z,28.70
2022-09-11T14:31:13.848Z,29.20
2022-09-11T14:33:41.972Z,29.70
2022-09-11T14:36:15.370Z,29.60
2022-09-11T14:38:44.981Z,29.30
2022-09-11T14:41:13.728Z,29.00
2022-09-11T14:43:41.787Z,28.90
2022-09-11T14:46:09.939Z,28.80
2022-09-11T14:48:37.797Z,28.60
2022-09-11T14:51:12.719Z,28.60
2022-09-11T14:53:43.430Z,27.60
2022-09-11T14:56:12.897Z,27.50
2022-09-11T14:58:41.014Z,27.60
2022-09-11T15:01:10.261Z,27.80
2022-09-11T15:03:39.161Z,28.00
2022-09-11T15:06:11.872Z,28.20
2022-09-11T15:08:40.182Z,28.30
2022-09-11T15:11:08.201Z,28.40
2022-09-11T15:13:52.620Z,28.40
2022-09-11T15:16:26.245Z,28.60
2022-09-11T15:18:54.673Z,28.30
2022-09-11T15:21:22.737Z,28.30
2022-09-11T15:23:50.825Z,28.40
2022-09-11T15:26:18.824Z,28.50
2022-09-11T15:28:50.808Z,28.60
2022-09-11T15:31:19.548Z,28.40
2022-09-11T15:33:50.718Z,28.20
2022-09-11T15:36:20.342Z,28.00
2022-09-11T15:38:52.349Z,27.80
2022-09-11T15:41:21.922Z,27.70
2022-09-11T15:43:51.623Z,27.60
2022-09-11T15:46:22.603Z,27.40
2022-09-11T15:48:51.601Z,27.60
2022-09-11T15:51:21.815Z,27.60
2022-09-11T15:53:49.765Z,27.70
2022-09-11T15:56:25.885Z,27.70
2022-09-11T15:58:57.585Z,27.80
2022-09-11T16:01:26.842Z,27.70
2022-09-11T16:03:55.986Z,27.70
2022-09-11T16:06:25.089Z,27.80
2022-09-11T16:08:56.532Z,27.80
2022-09-11T16:11:25.107Z,27.70
2022-09-11T16:13:53.399Z,27.70
2022-09-11T16:16:22.922Z,27.50
2022-09-11T16:18:50.937Z,27.50
2022-09-11T16:21:19.542Z,27.50
2022-09-11T16:23:52.717Z,27.60
2022-09-11T16:26:24.489Z,27.50
2022-09-11T16:28:53.179Z,27.50
2022-09-11T16:31:22.472Z,27.40
2022-09-11T16:33:50.976Z,27.30
2022-09-11T16:36:19.798Z,27.10
2022-09-11T16:38:50.104Z,26.90
2022-09-11T16:41:19.167Z,26.80
2022-09-11T16:43:48.264Z,26.80
2022-09-11T16:46:17.326Z,26.70
2022-09-11T16:48:51.895Z,26.60
2022-09-11T16:51:23.360Z,26.40
2022-09-11T16:53:51.360Z,26.40
2022-09-11T16:56:19.748Z,26.30
2022-09-11T16:58:48.118Z,26.20
2022-09-11T17:01:17.745Z,26.10
2022-09-11T17:03:48.154Z,26.00
2022-09-11T17:06:16.297Z,25.90
2022-09-11T17:08:44.729Z,25.80
2022-09-11T17:11:13.870Z,25.60
2022-09-11T17:13:41.824Z,25.50
2022-09-11T17:16:15.423Z,25.30
2022-09-11T17:18:48.698Z,25.20
2022-09-11T17:21:17.410Z,24.90
2022-09-11T17:23:45.473Z,24.80
2022-09-11T17:26:15.112Z,24.60
2022-09-11T17:28:43.964Z,24.40
2022-09-11T17:31:14.044Z,24.20
2022-09-11T17:33:42.322Z,24.20
2022-09-11T17:36:11.856Z,24.00
2022-09-11T17:38:40.561Z,23.90
2022-09-11T17:41:09.452Z,23.70
2022-09-11T17:43:37.778Z,23.60
2022-09-11T17:46:06.504Z,23.40
2022-09-11T17:48:35.068Z,22.50
2022-09-11T17:51:03.597Z,23.30
2022-09-11T17:53:38.476Z,23.10
2022-09-11T17:56:07.787Z,23.00
2022-09-11T17:58:36.072Z,22.80
2022-09-11T18:01:04.106Z,22.70
2022-09-11T18:03:33.434Z,22.70
2022-09-11T18:06:01.873Z,22.50
2022-09-11T18:08:31.224Z,22.50
2022-09-11T18:11:01.359Z,22.40
2022-09-11T18:13:31.325Z,22.30
2022-09-11T18:15:59.449Z,22.20
2022-09-11T18:18:27.438Z,22.10
2022-09-11T18:20:55.431Z,22.00
2022-09-11T18:23:24.133Z,21.90
2022-09-11T18:25:52.016Z,21.80
2022-09-11T18:28:21.239Z,21.70
2022-09-11T18:30:49.871Z,21.60
2022-09-11T18:33:17.894Z,21.40
2022-09-11T18:35:46.638Z,21.30
2022-09-11T18:38:14.549Z,21.30
2022-09-11T18:40:42.451Z,21.20
2022-09-11T18:43:10.337Z,21.20
2022-09-11T18:45:41.509Z,21.10
2022-09-11T18:48:09.430Z,21.00
2022-09-11T18:50:37.546Z,20.90
2022-09-11T18:53:05.435Z,20.80
2022-09-11T18:55:33.295Z,20.70
2022-09-11T18:58:01.163Z,20.60
2022-09-11T19:00:29.105Z,20.50
2022-09-11T19:02:59.710Z,20.50
2022-09-11T19:05:29.250Z,20.40
2022-09-11T19:08:00.089Z,20.40
2022-09-11T19:10:28.920Z,20.30
2022-09-11T19:12:56.978Z,20.20
2022-09-11T19:15:25.173Z,20.20
2022-09-11T19:17:56.468Z,20.10
2022-09-11T19:20:26.191Z,20.00
2022-09-11T19:22:54.861Z,20.00
2022-09-11T19:25:22.989Z,20.00
2022-09-11T19:27:51.059Z,19.90
2022-09-11T19:30:19.835Z,19.80
2022-09-11T19:32:49.450Z,19.80
2022-09-11T19:35:17.896Z,19.70
2022-09-11T19:37:47.625Z,19.60
2022-09-11T19:40:15.510Z,19.60
2022-09-11T19:42:43.751Z,19.60
2022-09-11T19:45:11.992Z,19.50
2022-09-11T19:47:40.036Z,19.40
2022-09-11T19:50:09.627Z,19.40
2022-09-11T19:52:37.680Z,19.40
2022-09-11T19:55:07.938Z,19.30
2022-09-11T19:57:36.104Z,19.30
2022-09-11T20:00:05.037Z,19.20
2022-09-11T20:02:33.303Z,19.10
2022-09-11T20:05:01.454Z,19.00
2022-09-11T20:07:29.919Z,19.00
2022-09-11T20:09:57.989Z,18.90
2022-09-11T20:12:31.232Z,18.90
2022-09-11T20:15:00.491Z,18.80
2022-09-11T20:17:29.658Z,18.80
2022-09-11T20:19:59.930Z,18.70
2022-09-11T20:22:28.447Z,18.70
2022-09-11T20:24:56.545Z,18.70
2022-09-11T20:27:24.813Z,18.60
2022-09-11T20:29:57.171Z,18.60
2022-09-11T20:32:25.350Z,18.50
2022-09-11T20:34:53.315Z,18.50
2022-09-11T20:37:21.520Z,18.40
2022-09-11T20:39:49.732Z,18.40
2022-09-11T20:42:17.887Z,18.30
2022-09-11T20:44:46.024Z,18.30
2022-09-11T20:47:15.724Z,18.20
2022-09-11T20:49:43.892Z,18.20
2022-09-11T20:52:12.587Z,18.20
2022-09-11T20:54:40.648Z,18.10
2022-09-11T20:57:09.669Z,18.10
2022-09-11T20:59:37.819Z,18.10
2022-09-11T21:02:06.080Z,18.00
2022-09-11T21:04:35.620Z,17.90
2022-09-11T21:07:03.771Z,17.90
2022-09-11T21:09:32.053Z,17.80
2022-09-11T21:12:00.178Z,17.80
2022-09-11T21:14:28.398Z,17.80
2022-09-11T21:16:56.570Z,17.70
2022-09-11T21:19:24.669Z,17.70
2022-09-11T21:21:54.130Z,17.60
2022-09-11T21:24:22.268Z,17.60
2022-09-11T21:26:50.346Z,17.50
2022-09-11T21:29:18.598Z,17.50
2022-09-11T21:31:46.711Z,17.40
2022-09-11T21:34:14.833Z,17.40
2022-09-11T21:36:43.212Z,17.40
2022-09-11T21:39:13.225Z,17.30
2022-09-11T21:41:41.329Z,17.30
2022-09-11T21:44:09.538Z,17.20
2022-09-11T21:46:37.948Z,17.20
2022-09-11T21:49:06.058Z,17.20
2022-09-11T21:51:34.157Z,17.10
2022-09-11T21:54:02.167Z,17.10
2022-09-11T21:56:32.364Z,17.10
2022-09-11T21:59:00.836Z,17.00
2022-09-11T22:01:29.168Z,17.00
2022-09-11T22:03:57.095Z,16.90
2022-09-11T22:06:26.782Z,16.90
2022-09-11T22:08:56.235Z,16.90
2022-09-11T22:11:24.158Z,16.80
2022-09-11T22:13:54.193Z,16.80
2022-09-11T22:16:23.053Z,16.70
2022-09-11T22:18:51.885Z,16.70
2022-09-11T22:21:19.947Z,16.60
2022-09-11T22:23:47.911Z,16.60
2022-09-11T22:26:16.866Z,16.60
2022-09-11T22:28:44.891Z,16.60
2022-09-11T22:31:15.575Z,16.50
2022-09-11T22:33:43.521Z,16.50
2022-09-11T22:36:12.458Z,16.40
2022-09-11T22:38:40.647Z,16.40
2022-09-11T22:41:08.622Z,16.40
2022-09-11T22:43:36.689Z,16.30
2022-09-11T22:46:05.082Z,16.30
2022-09-11T22:48:34.721Z,16.20
2022-09-11T22:51:02.797Z,16.20
2022-09-11T22:53:31.208Z,16.20
2022-09-11T22:55:59.423Z,16.20
2022-09-11T22:58:29.110Z,16.10
2022-09-11T23:00:57.494Z,16.10
2022-09-11T23:03:25.440Z,16.10
2022-09-11T23:06:14.372Z,16.00
2022-09-11T23:08:42.272Z,16.00
2022-09-11T23:11:11.462Z,15.90
2022-09-11T23:13:39.379Z,15.90
2022-09-11T23:16:12.619Z,15.90
2022-09-11T23:18:40.621Z,15.90
2022-09-11T23:21:10.133Z,15.80
2022-09-11T23:23:41.066Z,15.80
2022-09-11T23:26:09.350Z,15.80
2022-09-11T23:28:37.418Z,15.70
2022-09-11T23:31:11.005Z,15.70
2022-09-11T23:33:38.951Z,15.70
2022-09-11T23:36:07.352Z,15.70
2022-09-11T23:38:36.736Z,15.60
2022-09-11T23:41:04.629Z,15.60
2022-09-11T23:43:32.494Z,15.60
2022-09-11T23:46:00.540Z,15.50
2022-09-11T23:48:29.779Z,15.50
2022-09-11T23:50:57.726Z,15.50
2022-09-11T23:53:25.659Z,15.50
2022-09-11T23:55:55.414Z,15.50
2022-09-11T23:58:23.829Z,15.40
